sensor_id;sensor_type;location;lat;lon;timestamp;pressure;altitude;pressure_sealevel;temperature;humidity
64933;BME280;51446;53.850;10.662;2023-04-03T00:01:55;103322.44;;;0.29;100.00
64933;BME280;51446;53.850;10.662;2023-04-03T00:04:20;103317.44;;;0.30;100.00
64933;BME280;51446;53.850;10.662;2023-04-03T00:06:46;103316.63;;;0.31;100.00
64933;BME280;51446;53.850;10.662;2023-04-03T00:09:11;103318.78;;;0.27;100.00
64933;BME280;51446;53.850;10.662;2023-04-03T00:11:36;103323.78;;;0.08;100.00
64933;BME280;51446;53.850;10.662;2023-04-03T00:14:01;103319.81;;;-0.06;100.00
64933;BME280;51446;53.850;10.662;2023-04-03T00:16:27;103320.56;;;-0.07;100.00
64933;BME280;51446;53.850;10.662;2023-04-03T00:18:52;103319.66;;;-0.08;100.00
64933;BME280;51446;53.850;10.662;2023-04-03T00:21:17;103330.13;;;-0.24;100.00
64933;BME280;51446;53.850;10.662;2023-04-03T00:23:42;103316.63;;;-0.21;100.00
64933;BME280;51446;53.850;10.662;2023-04-03T00:26:08;103329.97;;;-0.16;100.00
64933;BME280;51446;53.850;10.662;2023-04-03T00:28:33;103327.38;;;-0.25;100.00
64933;BME280;51446;53.850;10.662;2023-04-03T00:30:58;103329.66;;;-0.37;100.00
64933;BME280;51446;53.850;10.662;2023-04-03T00:33:24;103332.22;;;-0.37;100.00
64933;BME280;51446;53.850;10.662;2023-04-03T00:35:50;103329.34;;;-0.31;100.00
64933;BME280;51446;53.850;10.662;2023-04-03T00:38:15;103335.09;;;-0.34;100.00
64933;BME280;51446;53.850;10.662;2023-04-03T00:40:46;103335.09;;;-0.34;100.00
64933;BME280;51446;53.850;10.662;2023-04-03T00:43:17;103336.47;;;-0.29;100.00
64933;BME280;51446;53.850;10.662;2023-04-03T00:45:46;103338.13;;;-0.38;100.00
64933;BME280;51446;53.850;10.662;2023-04-03T00:50:58;103339.00;;;-0.46;100.00
64933;BME280;51446;53.850;10.662;2023-04-03T00:53:29;103339.94;;;-0.46;100.00
64933;BME280;51446;53.850;10.662;2023-04-03T00:55:56;103350.38;;;-0.53;100.00
64933;BME280;51446;53.850;10.662;2023-04-03T00:58:28;103345.22;;;-0.53;100.00
64933;BME280;51446;53.850;10.662;2023-04-03T01:00:58;103346.44;;;-0.49;100.00
64933;BME280;51446;53.850;10.662;2023-04-03T01:03:23;103346.88;;;-0.45;100.00
64933;BME280;51446;53.850;10.662;2023-04-03T01:05:49;103345.41;;;-0.43;100.00
64933;BME280;51446;53.850;10.662;2023-04-03T01:08:15;103339.78;;;-0.47;100.00
64933;BME280;51446;53.850;10.662;2023-04-03T01:10:40;103344.31;;;-0.45;100.00
64933;BME280;51446;53.850;10.662;2023-04-03T01:13:27;103339.00;;;-0.46;100.00
64933;BME280;51446;53.850;10.662;2023-04-03T01:15:53;103345.09;;;-0.46;100.00
64933;BME280;51446;53.850;10.662;2023-04-03T01:18:18;103342.50;;;-0.46;100.00
64933;BME280;51446;53.850;10.662;2023-04-03T01:26:16;103342.22;;;-0.40;100.00
64933;BME280;51446;53.850;10.662;2023-04-03T01:28:42;103342.81;;;-0.43;100.00
64933;BME280;51446;53.850;10.662;2023-04-03T01:33:38;103349.63;;;-0.43;100.00
64933;BME280;51446;53.850;10.662;2023-04-03T01:36:04;103347.16;;;-0.59;100.00
64933;BME280;51446;53.850;10.662;2023-04-03T01:38:30;103349.94;;;-0.49;100.00
64933;BME280;51446;53.850;10.662;2023-04-03T01:40:55;103351.59;;;-0.49;100.00
64933;BME280;51446;53.850;10.662;2023-04-03T01:43:20;103354.72;;;-0.61;100.00
64933;BME280;51446;53.850;10.662;2023-04-03T01:45:46;103351.94;;;-0.71;100.00
64933;BME280;51446;53.850;10.662;2023-04-03T01:48:12;103344.63;;;-0.84;100.00
64933;BME280;51446;53.850;10.662;2023-04-03T01:50:37;103349.16;;;-0.90;100.00
64933;BME280;51446;53.850;10.662;2023-04-03T01:53:02;103347.47;;;-0.90;100.00
64933;BME280;51446;53.850;10.662;2023-04-03T01:55:27;103351.88;;;-0.89;100.00
64933;BME280;51446;53.850;10.662;2023-04-03T01:57:53;103348.00;;;-1.01;100.00
64933;BME280;51446;53.850;10.662;2023-04-03T02:00:18;103346.81;;;-1.05;100.00
64933;BME280;51446;53.850;10.662;2023-04-03T02:02:43;103346.91;;;-1.12;100.00
64933;BME280;51446;53.850;10.662;2023-04-03T02:05:09;103350.59;;;-1.26;100.00
64933;BME280;51446;53.850;10.662;2023-04-03T02:07:34;103355.44;;;-1.29;100.00
64933;BME280;51446;53.850;10.662;2023-04-03T02:10:00;103351.59;;;-1.16;100.00
64933;BME280;51446;53.850;10.662;2023-04-03T02:12:25;103357.41;;;-1.01;100.00
64933;BME280;51446;53.850;10.662;2023-04-03T02:14:50;103358.53;;;-1.15;100.00
64933;BME280;51446;53.850;10.662;2023-04-03T02:17:16;103354.38;;;-1.06;100.00
64933;BME280;51446;53.850;10.662;2023-04-03T02:19:41;103356.78;;;-1.08;100.00
64933;BME280;51446;53.850;10.662;2023-04-03T02:22:06;103355.44;;;-1.04;100.00
64933;BME280;51446;53.850;10.662;2023-04-03T02:24:32;103357.09;;;-1.05;100.00
64933;BME280;51446;53.850;10.662;2023-04-03T02:26:57;103350.91;;;-1.07;100.00
64933;BME280;51446;53.850;10.662;2023-04-03T02:29:23;103352.22;;;-1.10;100.00
64933;BME280;51446;53.850;10.662;2023-04-03T02:31:49;103350.22;;;-1.13;100.00
64933;BME280;51446;53.850;10.662;2023-04-03T02:34:14;103348.25;;;-1.15;100.00
64933;BME280;51446;53.850;10.662;2023-04-03T02:36:39;103351.00;;;-1.14;100.00
64933;BME280;51446;53.850;10.662;2023-04-03T02:39:05;103353.38;;;-1.15;100.00
64933;BME280;51446;53.850;10.662;2023-04-03T02:41:30;103348.63;;;-1.28;100.00
64933;BME280;51446;53.850;10.662;2023-04-03T02:44:01;103352.00;;;-1.20;100.00
64933;BME280;51446;53.850;10.662;2023-04-03T02:46:27;103351.97;;;-1.29;100.00
64933;BME280;51446;53.850;10.662;2023-04-03T02:48:52;103361.06;;;-1.24;100.00
64933;BME280;51446;53.850;10.662;2023-04-03T02:51:17;103357.63;;;-1.16;100.00
64933;BME280;51446;53.850;10.662;2023-04-03T02:53:43;103362.63;;;-1.17;100.00
64933;BME280;51446;53.850;10.662;2023-04-03T02:56:08;103357.91;;;-1.22;100.00
64933;BME280;51446;53.850;10.662;2023-04-03T02:58:33;103352.75;;;-1.22;100.00
64933;BME280;51446;53.850;10.662;2023-04-03T03:00:58;103356.63;;;-1.09;100.00
64933;BME280;51446;53.850;10.662;2023-04-03T03:03:24;103357.22;;;-1.36;100.00
64933;BME280;51446;53.850;10.662;2023-04-03T03:05:49;103358.09;;;-1.36;100.00
64933;BME280;51446;53.850;10.662;2023-04-03T03:08:14;103355.84;;;-1.33;100.00
64933;BME280;51446;53.850;10.662;2023-04-03T03:10:40;103349.16;;;-1.15;100.00
64933;BME280;51446;53.850;10.662;2023-04-03T03:13:05;103354.53;;;-1.29;100.00
64933;BME280;51446;53.850;10.662;2023-04-03T03:15:30;103353.78;;;-1.28;100.00
64933;BME280;51446;53.850;10.662;2023-04-03T03:17:56;103357.44;;;-1.26;100.00
64933;BME280;51446;53.850;10.662;2023-04-03T03:20:21;103348.91;;;-1.34;100.00
64933;BME280;51446;53.850;10.662;2023-04-03T03:22:46;103355.78;;;-1.42;100.00
64933;BME280;51446;53.850;10.662;2023-04-03T03:25:11;103351.75;;;-1.40;100.00
64933;BME280;51446;53.850;10.662;2023-04-03T03:27:37;103357.47;;;-1.42;100.00
64933;BME280;51446;53.850;10.662;2023-04-03T03:30:02;103356.38;;;-1.44;100.00
64933;BME280;51446;53.850;10.662;2023-04-03T03:32:28;103357.03;;;-1.38;100.00
64933;BME280;51446;53.850;10.662;2023-04-03T03:34:53;103358.25;;;-1.34;100.00
64933;BME280;51446;53.850;10.662;2023-04-03T03:37:18;103361.72;;;-1.18;100.00
64933;BME280;51446;53.850;10.662;2023-04-03T03:39:44;103359.78;;;-1.36;100.00
64933;BME280;51446;53.850;10.662;2023-04-03T03:42:09;103363.03;;;-1.46;100.00
64933;BME280;51446;53.850;10.662;2023-04-03T03:44:34;103357.41;;;-1.51;100.00
64933;BME280;51446;53.850;10.662;2023-04-03T03:46:59;103357.25;;;-1.52;100.00
64933;BME280;51446;53.850;10.662;2023-04-03T03:49:25;103359.91;;;-1.60;100.00
64933;BME280;51446;53.850;10.662;2023-04-03T03:51:50;103358.88;;;-1.53;100.00
64933;BME280;51446;53.850;10.662;2023-04-03T03:54:15;103358.16;;;-1.68;100.00
64933;BME280;51446;53.850;10.662;2023-04-03T03:56:41;103355.34;;;-1.62;100.00
64933;BME280;51446;53.850;10.662;2023-04-03T03:59:06;103363.22;;;-1.61;100.00
64933;BME280;51446;53.850;10.662;2023-04-03T04:01:32;103358.75;;;-1.70;100.00
64933;BME280;51446;53.850;10.662;2023-04-03T04:03:57;103361.00;;;-1.73;100.00
64933;BME280;51446;53.850;10.662;2023-04-03T04:06:22;103362.75;;;-1.65;100.00
64933;BME280;51446;53.850;10.662;2023-04-03T04:08:48;103364.72;;;-1.63;100.00
64933;BME280;51446;53.850;10.662;2023-04-03T04:11:13;103364.91;;;-1.61;100.00
64933;BME280;51446;53.850;10.662;2023-04-03T04:13:39;103368.22;;;-1.62;100.00
64933;BME280;51446;53.850;10.662;2023-04-03T04:16:06;103368.78;;;-1.65;100.00
64933;BME280;51446;53.850;10.662;2023-04-03T04:18:31;103371.44;;;-1.56;100.00
64933;BME280;51446;53.850;10.662;2023-04-03T04:20:56;103366.78;;;-1.67;100.00
64933;BME280;51446;53.850;10.662;2023-04-03T04:23:22;103367.41;;;-1.70;100.00
64933;BME280;51446;53.850;10.662;2023-04-03T04:25:48;103368.47;;;-1.68;100.00
64933;BME280;51446;53.850;10.662;2023-04-03T04:28:14;103372.00;;;-1.59;100.00
64933;BME280;51446;53.850;10.662;2023-04-03T04:30:39;103375.09;;;-1.54;100.00
64933;BME280;51446;53.850;10.662;2023-04-03T04:33:04;103368.13;;;-1.55;100.00
64933;BME280;51446;53.850;10.662;2023-04-03T04:35:30;103378.91;;;-1.01;100.00
64933;BME280;51446;53.850;10.662;2023-04-03T04:37:55;103378.13;;;-1.33;100.00
64933;BME280;51446;53.850;10.662;2023-04-03T04:40:21;103381.53;;;-1.42;100.00
64933;BME280;51446;53.850;10.662;2023-04-03T04:42:46;103374.28;;;-1.37;100.00
64933;BME280;51446;53.850;10.662;2023-04-03T04:45:11;103382.38;;;-1.34;100.00
64933;BME280;51446;53.850;10.662;2023-04-03T04:47:37;103382.63;;;-1.40;100.00
64933;BME280;51446;53.850;10.662;2023-04-03T04:50:02;103392.41;;;-1.28;100.00
64933;BME280;51446;53.850;10.662;2023-04-03T04:52:28;103387.91;;;-1.22;100.00
64933;BME280;51446;53.850;10.662;2023-04-03T04:54:53;103394.78;;;-1.30;100.00
64933;BME280;51446;53.850;10.662;2023-04-03T04:57:18;103394.41;;;-1.17;100.00
64933;BME280;51446;53.850;10.662;2023-04-03T04:59:44;103392.63;;;-1.18;100.00
64933;BME280;51446;53.850;10.662;2023-04-03T05:02:09;103396.00;;;-0.85;100.00
64933;BME280;51446;53.850;10.662;2023-04-03T05:04:34;103400.41;;;-0.51;100.00
64933;BME280;51446;53.850;10.662;2023-04-03T05:07:00;103393.53;;;-0.26;100.00
64933;BME280;51446;53.850;10.662;2023-04-03T05:09:25;103396.91;;;-0.09;100.00
64933;BME280;51446;53.850;10.662;2023-04-03T05:11:50;103400.91;;;0.22;100.00
64933;BME280;51446;53.850;10.662;2023-04-03T05:14:16;103402.91;;;0.33;100.00
64933;BME280;51446;53.850;10.662;2023-04-03T05:16:41;103403.63;;;1.02;100.00
64933;BME280;51446;53.850;10.662;2023-04-03T05:19:06;103407.38;;;1.15;100.00
64933;BME280;51446;53.850;10.662;2023-04-03T05:21:31;103405.72;;;0.98;100.00
64933;BME280;51446;53.850;10.662;2023-04-03T05:23:58;103407.94;;;1.30;100.00
64933;BME280;51446;53.850;10.662;2023-04-03T05:26:24;103409.13;;;1.70;100.00
64933;BME280;51446;53.850;10.662;2023-04-03T05:28:51;103403.63;;;1.76;100.00
64933;BME280;51446;53.850;10.662;2023-04-03T05:31:16;103394.63;;;1.81;100.00
64933;BME280;51446;53.850;10.662;2023-04-03T05:33:42;103393.88;;;2.29;100.00
64933;BME280;51446;53.850;10.662;2023-04-03T05:36:07;103396.03;;;2.81;100.00
64933;BME280;51446;53.850;10.662;2023-04-03T05:38:33;103410.44;;;3.17;100.00
64933;BME280;51446;53.850;10.662;2023-04-03T05:40:58;103403.22;;;3.73;100.00
64933;BME280;51446;53.850;10.662;2023-04-03T05:43:24;103409.56;;;3.77;100.00
64933;BME280;51446;53.850;10.662;2023-04-03T05:45:50;103407.22;;;3.80;100.00
64933;BME280;51446;53.850;10.662;2023-04-03T05:48:15;103407.59;;;3.74;100.00
64933;BME280;51446;53.850;10.662;2023-04-03T05:50:41;103408.75;;;3.57;100.00
64933;BME280;51446;53.850;10.662;2023-04-03T05:53:13;103415.19;;;4.02;100.00
64933;BME280;51446;53.850;10.662;2023-04-03T05:55:40;103416.22;;;4.35;100.00
64933;BME280;51446;53.850;10.662;2023-04-03T05:58:06;103423.47;;;3.98;100.00
64933;BME280;51446;53.850;10.662;2023-04-03T06:00:31;103414.34;;;4.55;100.00
64933;BME280;51446;53.850;10.662;2023-04-03T06:02:56;103409.81;;;5.71;100.00
64933;BME280;51446;53.850;10.662;2023-04-03T06:05:22;103409.16;;;6.42;100.00
64933;BME280;51446;53.850;10.662;2023-04-03T06:07:47;103411.75;;;6.42;96.71
64933;BME280;51446;53.850;10.662;2023-04-03T06:10:14;103421.88;;;6.97;96.07
64933;BME280;51446;53.850;10.662;2023-04-03T06:12:39;103414.94;;;7.09;92.39
64933;BME280;51446;53.850;10.662;2023-04-03T06:15:05;103428.22;;;6.88;98.44
64933;BME280;51446;53.850;10.662;2023-04-03T06:17:32;103420.50;;;6.90;94.29
64933;BME280;51446;53.850;10.662;2023-04-03T06:19:58;103422.66;;;6.72;100.00
64933;BME280;51446;53.850;10.662;2023-04-03T06:22:23;103426.63;;;7.14;94.36
64933;BME280;51446;53.850;10.662;2023-04-03T06:24:50;103418.66;;;7.24;93.19
64933;BME280;51446;53.850;10.662;2023-04-03T06:27:15;103418.50;;;7.72;91.59
64933;BME280;51446;53.850;10.662;2023-04-03T06:29:41;103418.09;;;8.68;87.73
64933;BME280;51446;53.850;10.662;2023-04-03T06:32:07;103412.56;;;10.02;73.56
64933;BME280;51446;53.850;10.662;2023-04-03T06:34:32;103420.66;;;10.80;69.04
64933;BME280;51446;53.850;10.662;2023-04-03T06:36:58;103418.50;;;10.57;64.21
64933;BME280;51446;53.850;10.662;2023-04-03T06:39:23;103425.13;;;11.93;61.56
64933;BME280;51446;53.850;10.662;2023-04-03T06:41:49;103417.41;;;12.65;59.11
64933;BME280;51446;53.850;10.662;2023-04-03T06:44:15;103425.69;;;12.20;55.49
64933;BME280;51446;53.850;10.662;2023-04-03T06:46:42;103423.78;;;11.68;57.17
64933;BME280;51446;53.850;10.662;2023-04-03T06:49:08;103426.38;;;13.60;53.00
64933;BME280;51446;53.850;10.662;2023-04-03T06:51:34;103422.09;;;14.22;50.14
64933;BME280;51446;53.850;10.662;2023-04-03T06:54:00;103425.06;;;12.60;48.67
64933;BME280;51446;53.850;10.662;2023-04-03T06:56:27;103431.03;;;12.56;51.09
64933;BME280;51446;53.850;10.662;2023-04-03T06:58:53;103437.84;;;12.18;52.92
64933;BME280;51446;53.850;10.662;2023-04-03T07:01:23;103427.63;;;12.59;50.79
64933;BME280;51446;53.850;10.662;2023-04-03T07:03:50;103426.13;;;13.18;46.61
64933;BME280;51446;53.850;10.662;2023-04-03T07:06:16;103429.91;;;12.69;45.87
64933;BME280;51446;53.850;10.662;2023-04-03T07:08:42;103427.06;;;12.82;46.24
64933;BME280;51446;53.850;10.662;2023-04-03T07:11:09;103438.38;;;13.17;43.79
64933;BME280;51446;53.850;10.662;2023-04-03T07:13:34;103443.38;;;10.64;51.35
64933;BME280;51446;53.850;10.662;2023-04-03T07:16:00;103442.75;;;12.63;44.53
64933;BME280;51446;53.850;10.662;2023-04-03T07:18:26;103444.25;;;11.90;46.49
64933;BME280;51446;53.850;10.662;2023-04-03T07:20:51;103440.59;;;12.90;44.38
64933;BME280;51446;53.850;10.662;2023-04-03T07:23:17;103446.91;;;13.12;41.86
64933;BME280;51446;53.850;10.662;2023-04-03T07:25:44;103440.19;;;12.64;42.13
64933;BME280;51446;53.850;10.662;2023-04-03T07:28:09;103443.03;;;11.19;45.78
64933;BME280;51446;53.850;10.662;2023-04-03T07:30:35;103440.34;;;10.28;47.11
64933;BME280;51446;53.850;10.662;2023-04-03T07:33:07;103441.13;;;11.17;45.76
64933;BME280;51446;53.850;10.662;2023-04-03T07:35:32;103443.22;;;12.03;47.48
64933;BME280;51446;53.850;10.662;2023-04-03T07:37:57;103447.31;;;12.14;45.56
64933;BME280;51446;53.850;10.662;2023-04-03T07:40:23;103439.06;;;13.69;43.22
64933;BME280;51446;53.850;10.662;2023-04-03T07:42:48;103442.13;;;14.60;39.37
64933;BME280;51446;53.850;10.662;2023-04-03T07:45:13;103441.06;;;14.97;39.72
64933;BME280;51446;53.850;10.662;2023-04-03T07:47:38;103452.31;;;11.77;44.72
64933;BME280;51446;53.850;10.662;2023-04-03T07:50:04;103447.88;;;12.25;42.84
64933;BME280;51446;53.850;10.662;2023-04-03T07:52:30;103451.78;;;10.44;47.55
64933;BME280;51446;53.850;10.662;2023-04-03T07:54:55;103446.25;;;12.27;44.66
64933;BME280;51446;53.850;10.662;2023-04-03T07:57:20;103445.75;;;12.53;43.30
64933;BME280;51446;53.850;10.662;2023-04-03T07:59:46;103451.69;;;9.70;49.72
64933;BME280;51446;53.850;10.662;2023-04-03T08:02:11;103448.34;;;10.59;49.48
64933;BME280;51446;53.850;10.662;2023-04-03T08:04:37;103454.09;;;11.14;47.69
64933;BME280;51446;53.850;10.662;2023-04-03T08:07:02;103450.19;;;12.19;45.68
64933;BME280;51446;53.850;10.662;2023-04-03T08:09:27;103450.31;;;12.91;45.29
64933;BME280;51446;53.850;10.662;2023-04-03T08:11:52;103440.97;;;12.62;45.86
64933;BME280;51446;53.850;10.662;2023-04-03T08:14:18;103442.31;;;12.72;43.57
64933;BME280;51446;53.850;10.662;2023-04-03T08:16:45;103439.38;;;13.01;40.36
64933;BME280;51446;53.850;10.662;2023-04-03T08:19:11;103441.13;;;13.37;40.93
64933;BME280;51446;53.850;10.662;2023-04-03T08:21:39;103440.66;;;13.85;38.74
64933;BME280;51446;53.850;10.662;2023-04-03T08:24:06;103439.47;;;15.02;37.80
64933;BME280;51446;53.850;10.662;2023-04-03T08:26:32;103441.63;;;13.67;39.02
64933;BME280;51446;53.850;10.662;2023-04-03T08:28:57;103444.88;;;14.01;40.16
64933;BME280;51446;53.850;10.662;2023-04-03T08:31:22;103447.97;;;12.79;42.78
64933;BME280;51446;53.850;10.662;2023-04-03T08:33:48;103453.25;;;10.68;45.39
64933;BME280;51446;53.850;10.662;2023-04-03T08:36:25;103445.81;;;11.22;44.49
64933;BME280;51446;53.850;10.662;2023-04-03T08:38:51;103443.94;;;11.36;45.92
64933;BME280;51446;53.850;10.662;2023-04-03T08:41:31;103444.31;;;11.42;42.28
64933;BME280;51446;53.850;10.662;2023-04-03T08:44:35;103446.44;;;9.29;46.04
64933;BME280;51446;53.850;10.662;2023-04-03T08:49:39;103451.56;;;11.79;44.60
64933;BME280;51446;53.850;10.662;2023-04-03T08:52:11;103441.34;;;12.35;42.23
64933;BME280;51446;53.850;10.662;2023-04-03T08:57:13;103431.44;;;14.99;36.55
64933;BME280;51446;53.850;10.662;2023-04-03T08:59:39;103435.09;;;14.39;36.81
64933;BME280;51446;53.850;10.662;2023-04-03T09:02:23;103440.75;;;15.12;36.36
64933;BME280;51446;53.850;10.662;2023-04-03T09:04:50;103433.84;;;14.10;36.59
64933;BME280;51446;53.850;10.662;2023-04-03T09:07:36;103436.97;;;15.27;36.17
64933;BME280;51446;53.850;10.662;2023-04-03T09:10:05;103439.97;;;13.89;36.70
64933;BME280;51446;53.850;10.662;2023-04-03T09:12:39;103441.19;;;13.02;38.48
64933;BME280;51446;53.850;10.662;2023-04-03T09:15:23;103438.50;;;13.76;38.65
64933;BME280;51446;53.850;10.662;2023-04-03T09:17:59;103431.56;;;13.59;39.36
64933;BME280;51446;53.850;10.662;2023-04-03T09:22:54;103433.75;;;14.28;37.28
64933;BME280;51446;53.850;10.662;2023-04-03T09:25:25;103436.69;;;13.75;38.37
64933;BME280;51446;53.850;10.662;2023-04-03T09:27:52;103426.47;;;14.43;35.94
64933;BME280;51446;53.850;10.662;2023-04-03T09:30:24;103430.31;;;13.50;36.60
64933;BME280;51446;53.850;10.662;2023-04-03T09:32:52;103434.56;;;14.88;36.22
64933;BME280;51446;53.850;10.662;2023-04-03T09:35:29;103435.66;;;14.32;36.68
64933;BME280;51446;53.850;10.662;2023-04-03T09:40:39;103434.63;;;11.58;40.10
64933;BME280;51446;53.850;10.662;2023-04-03T09:45:43;103440.03;;;10.52;44.40
64933;BME280;51446;53.850;10.662;2023-04-03T09:48:16;103432.69;;;9.05;43.73
64933;BME280;51446;53.850;10.662;2023-04-03T09:53:35;103417.50;;;11.33;42.14
64933;BME280;51446;53.850;10.662;2023-04-03T09:56:18;103426.06;;;10.98;41.68
64933;BME280;51446;53.850;10.662;2023-04-03T09:58:51;103426.19;;;12.13;41.86
64933;BME280;51446;53.850;10.662;2023-04-03T10:04:09;103430.34;;;10.66;43.75
64933;BME280;51446;53.850;10.662;2023-04-03T10:06:38;103430.88;;;8.50;47.08
64933;BME280;51446;53.850;10.662;2023-04-03T10:14:21;103428.22;;;7.61;48.43
64933;BME280;51446;53.850;10.662;2023-04-03T10:16:53;103422.56;;;9.51;44.52
64933;BME280;51446;53.850;10.662;2023-04-03T10:19:25;103420.72;;;8.68;44.10
64933;BME280;51446;53.850;10.662;2023-04-03T10:22:16;103433.88;;;7.18;48.40
64933;BME280;51446;53.850;10.662;2023-04-03T10:27:19;103422.25;;;8.01;49.89
64933;BME280;51446;53.850;10.662;2023-04-03T10:29:55;103427.44;;;7.87;48.22
64933;BME280;51446;53.850;10.662;2023-04-03T10:32:43;103430.59;;;7.09;52.57
64933;BME280;51446;53.850;10.662;2023-04-03T10:35:49;103418.75;;;9.61;47.68
64933;BME280;51446;53.850;10.662;2023-04-03T10:41:21;103406.28;;;12.71;38.65
64933;BME280;51446;53.850;10.662;2023-04-03T10:44:06;103421.44;;;10.19;43.06
64933;BME280;51446;53.850;10.662;2023-04-03T10:47:14;103407.88;;;11.82;39.98
64933;BME280;51446;53.850;10.662;2023-04-03T10:52:31;103394.78;;;11.34;40.74
64933;BME280;51446;53.850;10.662;2023-04-03T10:55:36;103393.44;;;10.63;38.55
64933;BME280;51446;53.850;10.662;2023-04-03T10:58:04;103399.13;;;12.15;39.17
64933;BME280;51446;53.850;10.662;2023-04-03T11:00:36;103392.34;;;11.37;40.76
64933;BME280;51446;53.850;10.662;2023-04-03T11:03:16;103395.59;;;10.70;41.41
64933;BME280;51446;53.850;10.662;2023-04-03T11:05:45;103393.88;;;9.82;43.54
64933;BME280;51446;53.850;10.662;2023-04-03T11:08:33;103390.03;;;9.90;43.01
64933;BME280;51446;53.850;10.662;2023-04-03T11:11:03;103384.91;;;10.22;43.83
64933;BME280;51446;53.850;10.662;2023-04-03T11:13:40;103376.47;;;11.85;40.70
64933;BME280;51446;53.850;10.662;2023-04-03T11:16:08;103385.44;;;11.72;39.37
64933;BME280;51446;53.850;10.662;2023-04-03T11:18:44;103388.28;;;11.27;40.14
64933;BME280;51446;53.850;10.662;2023-04-03T11:21:19;103385.09;;;10.25;43.49
64933;BME280;51446;53.850;10.662;2023-04-03T11:23:47;103382.50;;;10.55;41.57
64933;BME280;51446;53.850;10.662;2023-04-03T11:26:15;103377.88;;;10.97;39.15
64933;BME280;51446;53.850;10.662;2023-04-03T11:28:41;103369.72;;;10.61;40.58
64933;BME280;51446;53.850;10.662;2023-04-03T11:31:15;103373.28;;;10.93;39.76
64933;BME280;51446;53.850;10.662;2023-04-03T11:36:49;103364.16;;;11.67;40.49
64933;BME280;51446;53.850;10.662;2023-04-03T11:39:26;103359.50;;;11.61;34.89
64933;BME280;51446;53.850;10.662;2023-04-03T11:41:53;103359.56;;;11.63;34.70
64933;BME280;51446;53.850;10.662;2023-04-03T11:44:34;103359.19;;;11.07;36.94
64933;BME280;51446;53.850;10.662;2023-04-03T11:47:03;103365.09;;;11.03;38.69
64933;BME280;51446;53.850;10.662;2023-04-03T11:50:01;103353.41;;;11.30;37.66
64933;BME280;51446;53.850;10.662;2023-04-03T12:13:36;103343.13;;;9.80;39.93
64933;BME280;51446;53.850;10.662;2023-04-03T12:16:02;103341.00;;;8.90;41.61
64933;BME280;51446;53.850;10.662;2023-04-03T12:48:58;103317.88;;;8.82;42.79
64933;BME280;51446;53.850;10.662;2023-04-03T12:51:30;103318.81;;;8.56;43.38
64933;BME280;51446;53.850;10.662;2023-04-03T12:54:18;103310.78;;;8.53;44.51
64933;BME280;51446;53.850;10.662;2023-04-03T12:56:44;103317.66;;;8.26;46.72
64933;BME280;51446;53.850;10.662;2023-04-03T12:59:16;103319.59;;;8.42;44.73
64933;BME280;51446;53.850;10.662;2023-04-03T13:01:43;103319.59;;;8.28;46.37
64933;BME280;51446;53.850;10.662;2023-04-03T13:04:11;103325.22;;;8.34;46.94
64933;BME280;51446;53.850;10.662;2023-04-03T13:06:42;103319.84;;;7.68;45.70
64933;BME280;51446;53.850;10.662;2023-04-03T13:11:47;103322.41;;;8.58;46.49
64933;BME280;51446;53.850;10.662;2023-04-03T13:14:21;103318.66;;;8.14;46.94
64933;BME280;51446;53.850;10.662;2023-04-03T13:19:24;103315.75;;;7.71;49.24
64933;BME280;51446;53.850;10.662;2023-04-03T13:21:58;103313.66;;;7.79;48.17
64933;BME280;51446;53.850;10.662;2023-04-03T13:24:24;103309.97;;;7.89;49.00
64933;BME280;51446;53.850;10.662;2023-04-03T13:26:51;103322.41;;;7.79;47.89
64933;BME280;51446;53.850;10.662;2023-04-03T13:29:28;103309.47;;;7.81;48.56
64933;BME280;51446;53.850;10.662;2023-04-03T13:31:55;103314.19;;;7.48;49.43
64933;BME280;51446;53.850;10.662;2023-04-03T13:34:22;103308.44;;;7.28;49.23
64933;BME280;51446;53.850;10.662;2023-04-03T13:39:23;103300.47;;;7.64;51.43
64933;BME280;51446;53.850;10.662;2023-04-03T13:41:51;103300.34;;;7.49;50.48
64933;BME280;51446;53.850;10.662;2023-04-03T13:44:29;103299.72;;;7.28;52.05
64933;BME280;51446;53.850;10.662;2023-04-03T13:46:58;103301.25;;;7.88;51.99
64933;BME280;51446;53.850;10.662;2023-04-03T13:49:31;103296.53;;;7.32;51.82
64933;BME280;51446;53.850;10.662;2023-04-03T13:51:57;103305.69;;;7.39;52.71
64933;BME280;51446;53.850;10.662;2023-04-03T13:54:29;103295.78;;;7.21;52.06
64933;BME280;51446;53.850;10.662;2023-04-03T13:56:57;103295.69;;;6.71;53.73
64933;BME280;51446;53.850;10.662;2023-04-03T13:59:29;103295.25;;;7.14;53.75
64933;BME280;51446;53.850;10.662;2023-04-03T14:04:29;103281.28;;;7.63;53.30
64933;BME280;51446;53.850;10.662;2023-04-03T14:06:55;103281.41;;;7.15;53.34
64933;BME280;51446;53.850;10.662;2023-04-03T14:09:22;103288.97;;;7.23;52.63
64933;BME280;51446;53.850;10.662;2023-04-03T14:11:49;103288.72;;;6.95;52.93
64933;BME280;51446;53.850;10.662;2023-04-03T14:14:19;103276.44;;;7.06;53.71
64933;BME280;51446;53.850;10.662;2023-04-03T14:16:50;103274.78;;;7.20;55.80
64933;BME280;51446;53.850;10.662;2023-04-03T14:19:22;103276.06;;;7.38;54.16
64933;BME280;51446;53.850;10.662;2023-04-03T14:21:48;103277.44;;;7.33;55.60
64933;BME280;51446;53.850;10.662;2023-04-03T14:24:16;103272.59;;;6.52;55.96
64933;BME280;51446;53.850;10.662;2023-04-03T14:26:42;103272.53;;;6.75;55.32
64933;BME280;51446;53.850;10.662;2023-04-03T14:29:10;103275.66;;;6.34;57.66
64933;BME280;51446;53.850;10.662;2023-04-03T14:31:36;103278.34;;;6.71;55.62